createdAt,value
2018-08-25T00:02:27.384Z,21.36
2018-08-25T00:07:11.346Z,21.94
2018-08-25T00:11:54.745Z,21.69
2018-08-25T00:16:42.551Z,22.35
2018-08-25T00:21:25.797Z,22.46
2018-08-25T00:26:09.209Z,23.02
2018-08-25T00:30:58.818Z,21.69
2018-08-25T00:35:42.153Z,22.61
2018-08-25T00:40:28.689Z,22.93
2018-08-25T00:45:11.948Z,23.09
2018-08-25T00:49:58.805Z,23.03
2018-08-25T00:54:42.147Z,22.80
2018-08-25T00:59:26.679Z,23.05
2018-08-25T01:04:09.961Z,22.98
2018-08-25T01:08:54.463Z,22.91
2018-08-25T01:13:37.787Z,22.67
2018-08-25T01:18:24.748Z,22.27
2018-08-25T01:23:07.960Z,23.01
2018-08-25T01:27:52.973Z,22.27
2018-08-25T01:32:36.440Z,21.62
2018-08-25T01:37:19.834Z,21.25
2018-08-25T01:42:03.346Z,21.22
2018-08-25T01:46:47.665Z,21.27
2018-08-25T01:51:31.062Z,22.14
2018-08-25T01:56:14.455Z,22.59
2018-08-25T02:00:58.977Z,22.67
2018-08-25T02:05:42.277Z,22.80
2018-08-25T02:10:26.759Z,22.83
2018-08-25T02:15:10.124Z,22.83
2018-08-25T02:19:57.161Z,22.89
2018-08-25T02:24:40.496Z,22.80
2018-08-25T02:29:27.488Z,21.83
2018-08-25T02:34:10.950Z,22.87
2018-08-25T02:38:55.334Z,22.72
2018-08-25T02:43:38.604Z,22.75
2018-08-25T02:48:22.163Z,22.76
2018-08-25T02:53:05.474Z,22.73
2018-08-25T02:57:49.996Z,22.56
2018-08-25T03:02:33.379Z,22.10
2018-08-25T03:07:16.718Z,22.27
2018-08-25T03:12:00.055Z,22.41
2018-08-25T03:16:43.516Z,22.52
2018-08-25T03:21:26.952Z,20.97
2018-08-25T03:26:16.275Z,21.19
2018-08-25T03:30:59.658Z,21.75
2018-08-25T03:37:12.292Z,21.01
2018-08-25T03:41:55.701Z,21.91
2018-08-25T03:46:40.116Z,22.14
2018-08-25T03:51:23.530Z,22.60
2018-08-25T03:56:08.013Z,22.49
2018-08-25T04:00:51.398Z,21.62
2018-08-25T04:05:34.824Z,21.44
2018-08-25T04:10:22.106Z,21.92
2018-08-25T04:15:06.861Z,22.15
2018-08-25T04:19:50.264Z,21.49
2018-08-25T04:24:33.730Z,22.45
2018-08-25T04:29:18.162Z,22.71
2018-08-25T04:34:01.517Z,21.87
2018-08-25T04:38:45.649Z,22.63
2018-08-25T04:43:28.990Z,22.71
2018-08-25T04:48:17.225Z,22.74
2018-08-25T04:53:01.002Z,22.78
2018-08-25T04:57:48.245Z,22.77
2018-08-25T05:02:31.718Z,22.79
2018-08-25T05:07:15.313Z,22.82
2018-08-25T05:11:58.685Z,22.76
2018-08-25T05:16:42.302Z,22.29
2018-08-25T05:21:25.969Z,22.56
2018-08-25T05:26:10.434Z,22.83
2018-08-25T05:30:53.781Z,22.77
2018-08-25T05:35:37.293Z,22.90
2018-08-25T05:40:22.244Z,23.00
2018-08-25T05:45:05.656Z,23.04
2018-08-25T05:49:50.220Z,23.03
2018-08-25T05:54:33.573Z,23.16
2018-08-25T05:59:20.876Z,23.19
2018-08-25T06:04:04.293Z,23.42
2018-08-25T06:08:47.871Z,23.42
2018-08-25T06:13:31.150Z,23.51
2018-08-25T06:18:14.661Z,23.45
2018-08-25T06:22:58.075Z,23.56
2018-08-25T06:27:44.962Z,23.60
2018-08-25T06:32:28.381Z,23.57
2018-08-25T06:37:12.253Z,23.65
2018-08-25T06:41:55.534Z,23.87
2018-08-25T06:46:42.591Z,24.10
2018-08-25T06:51:25.897Z,24.17
2018-08-25T06:56:10.512Z,24.33
2018-08-25T07:00:54.650Z,24.16
2018-08-25T07:05:38.049Z,24.43
2018-08-25T07:10:21.435Z,24.69
2018-08-25T07:15:05.698Z,24.71
2018-08-25T07:19:50.026Z,24.77
2018-08-25T07:24:33.358Z,25.01
2018-08-25T07:29:18.019Z,25.24
2018-08-25T07:34:01.397Z,25.13
2018-08-25T07:38:45.225Z,24.64
2018-08-25T07:43:28.720Z,24.96
2018-08-25T07:48:12.276Z,25.50
2018-08-25T07:52:55.610Z,24.95
2018-08-25T07:57:39.278Z,24.92
2018-08-25T08:02:22.692Z,25.56
2018-08-25T08:07:06.300Z,25.35
2018-08-25T08:11:50.051Z,25.72
2018-08-25T08:16:37.253Z,25.90
2018-08-25T08:21:20.641Z,25.66
2018-08-25T08:26:04.307Z,25.78
2018-08-25T08:30:47.968Z,25.94
2018-08-25T08:35:31.865Z,25.50
2018-08-25T08:40:15.362Z,25.46
2018-08-25T08:44:58.690Z,26.13
2018-08-25T08:49:46.817Z,26.44
2018-08-25T08:54:26.731Z,26.23
2018-08-25T08:59:10.359Z,26.08
2018-08-25T09:03:54.013Z,26.53
2018-08-25T09:08:37.680Z,26.76
2018-08-25T09:13:21.080Z,26.45
2018-08-25T09:18:05.687Z,26.88
2018-08-25T09:22:49.147Z,27.15
2018-08-25T09:27:32.820Z,27.39
2018-08-25T09:32:16.176Z,27.60
2018-08-25T09:36:59.711Z,27.35
2018-08-25T09:41:43.010Z,27.13
2018-08-25T09:46:27.541Z,27.71
2018-08-25T09:51:11.048Z,27.77
2018-08-25T09:55:54.723Z,27.56
2018-08-25T10:00:38.535Z,27.44
2018-08-25T10:05:23.166Z,28.00
2018-08-25T10:10:07.707Z,27.75
2018-08-25T10:14:51.097Z,27.50
2018-08-25T10:19:35.551Z,27.68
2018-08-25T10:24:18.990Z,28.00
2018-08-25T10:29:02.629Z,28.11
2018-08-25T10:33:45.932Z,28.07
2018-08-25T10:38:31.349Z,28.22
2018-08-25T10:43:14.617Z,27.86
2018-08-25T10:47:58.211Z,28.54
2018-08-25T10:52:42.058Z,28.16
2018-08-25T10:57:25.595Z,28.90
2018-08-25T11:02:16.816Z,28.89
2018-08-25T11:07:00.209Z,28.37
2018-08-25T11:11:43.647Z,28.59
2018-08-25T11:16:27.305Z,28.37
2018-08-25T11:21:10.694Z,28.67
2018-08-25T11:25:54.337Z,28.87
2018-08-25T11:30:38.121Z,28.79
2018-08-25T11:35:22.994Z,28.97
2018-08-25T11:40:06.490Z,28.63
2018-08-25T11:44:49.951Z,29.22
2018-08-25T11:49:33.159Z,29.02
2018-08-25T11:54:16.530Z,28.85
2018-08-25T11:59:00.158Z,29.13
2018-08-25T12:03:43.697Z,28.96
2018-08-25T12:08:27.202Z,29.18
2018-08-25T12:13:10.682Z,29.20
2018-08-25T12:17:54.198Z,29.33
2018-08-25T12:22:37.564Z,29.00
2018-08-25T12:27:21.081Z,29.17
2018-08-25T12:32:04.470Z,29.10
2018-08-25T12:36:47.834Z,29.11
2018-08-25T12:41:31.701Z,29.03
2018-08-25T12:46:15.293Z,29.08
2018-08-25T12:50:58.638Z,28.83
2018-08-25T12:55:41.963Z,28.94
2018-08-25T13:00:25.412Z,29.08
2018-08-25T13:05:08.980Z,29.07
2018-08-25T13:09:52.440Z,28.88
2018-08-25T13:14:35.951Z,28.87
2018-08-25T13:19:19.184Z,28.96
2018-08-25T13:24:02.536Z,28.88
2018-08-25T13:28:47.130Z,28.85
2018-08-25T13:33:30.542Z,28.98
2018-08-25T13:38:13.850Z,28.80
2018-08-25T13:42:57.163Z,28.90
2018-08-25T13:47:40.771Z,28.84
2018-08-25T13:52:24.104Z,28.96
2018-08-25T13:57:07.455Z,29.09
2018-08-25T14:01:50.908Z,29.27
2018-08-25T14:06:37.900Z,29.13
2018-08-25T14:11:21.322Z,28.82
2018-08-25T14:16:05.778Z,28.58
2018-08-25T14:20:49.019Z,28.64
2018-08-25T14:25:38.662Z,28.41
2018-08-25T14:30:22.534Z,28.37
2018-08-25T14:35:07.001Z,28.36
2018-08-25T14:39:50.429Z,28.30
2018-08-25T14:44:35.054Z,28.28
2018-08-25T14:49:18.529Z,28.24
2018-08-25T14:54:01.970Z,28.16
2018-08-25T14:58:49.162Z,28.19
2018-08-25T15:03:37.571Z,28.08
2018-08-25T15:08:24.606Z,28.01
2018-08-25T15:13:07.972Z,27.96
2018-08-25T15:17:52.268Z,27.94
2018-08-25T15:22:35.714Z,27.88
2018-08-25T15:27:20.315Z,27.94
2018-08-25T15:32:03.597Z,27.88
2018-08-25T15:36:47.258Z,27.74
2018-08-25T15:41:30.643Z,27.80
2018-08-25T15:46:14.084Z,27.78
2018-08-25T15:50:57.193Z,27.74
2018-08-25T15:55:41.590Z,27.74
2018-08-25T16:00:24.928Z,27.76
2018-08-25T16:05:12.059Z,27.70
2018-08-25T16:09:55.495Z,27.57
2018-08-25T16:14:39.027Z,27.69
2018-08-25T16:19:22.564Z,27.68
2018-08-25T16:24:05.879Z,27.53
2018-08-25T16:28:52.947Z,27.60
2018-08-25T16:33:36.319Z,27.57
2018-08-25T16:38:19.861Z,27.55
2018-08-25T16:43:03.150Z,27.48
2018-08-25T16:47:46.638Z,27.40
2018-08-25T16:52:29.956Z,27.36
2018-08-25T16:57:13.970Z,27.36
2018-08-25T17:01:57.479Z,27.36
2018-08-25T17:06:41.106Z,27.16
2018-08-25T17:11:24.876Z,27.42
2018-08-25T17:16:08.596Z,27.48
2018-08-25T17:20:51.955Z,27.21
2018-08-25T17:25:35.306Z,27.14
2018-08-25T17:30:19.211Z,27.02
2018-08-25T17:35:02.676Z,27.03
2018-08-25T17:39:46.207Z,27.00
2018-08-25T17:44:29.718Z,25.63
2018-08-25T17:49:13.370Z,26.11
2018-08-25T17:53:56.782Z,26.58
2018-08-25T17:58:40.281Z,26.65
2018-08-25T18:03:23.721Z,26.70
2018-08-25T18:08:07.414Z,26.65
2018-08-25T18:12:50.788Z,26.25
2018-08-25T18:17:34.671Z,26.48
2018-08-25T18:22:18.508Z,26.30
2018-08-25T18:27:02.196Z,26.17
2018-08-25T18:31:45.631Z,26.18
2018-08-25T18:36:29.074Z,25.12
2018-08-25T18:41:12.594Z,25.65
2018-08-25T18:45:59.100Z,26.13
2018-08-25T18:50:42.463Z,26.27
2018-08-25T18:55:26.030Z,25.23
2018-08-25T19:00:09.540Z,26.13
2018-08-25T19:04:53.035Z,26.11
2018-08-25T19:09:36.462Z,26.15
2018-08-25T19:14:20.165Z,26.15
2018-08-25T19:19:03.395Z,25.07
2018-08-25T19:23:46.887Z,24.91
2018-08-25T19:28:30.243Z,25.88
2018-08-25T19:33:13.619Z,26.14
2018-08-25T19:37:57.093Z,24.42
2018-08-25T19:42:40.485Z,25.18
2018-08-25T19:47:25.090Z,25.75
2018-08-25T19:52:08.487Z,24.46
2018-08-25T19:56:52.230Z,25.68
2018-08-25T20:01:35.711Z,26.06
2018-08-25T20:06:22.587Z,25.02
2018-08-25T20:11:05.882Z,25.49
2018-08-25T20:15:52.960Z,25.95
2018-08-25T20:20:36.693Z,25.78
2018-08-25T20:25:20.243Z,24.20
2018-08-25T20:30:03.717Z,24.02
2018-08-25T20:34:47.118Z,25.74
2018-08-25T20:39:30.619Z,25.85
2018-08-25T20:44:15.058Z,25.68
2018-08-25T20:48:58.436Z,24.94
2018-08-25T20:53:41.849Z,25.69
2018-08-25T20:58:25.283Z,24.74
2018-08-25T21:03:08.707Z,25.61
2018-08-25T21:07:53.067Z,25.73
2018-08-25T21:12:36.602Z,25.67
2018-08-25T21:17:20.209Z,25.46
2018-08-25T21:22:03.661Z,23.72
2018-08-25T21:26:47.009Z,24.44
2018-08-25T21:31:30.469Z,25.47
2018-08-25T21:36:13.977Z,25.38
2018-08-25T21:40:57.374Z,23.88
2018-08-25T21:45:44.379Z,25.16
2018-08-25T21:50:27.730Z,25.25
2018-08-25T21:55:14.554Z,23.09
2018-08-25T21:59:57.994Z,23.42
2018-08-25T22:04:41.553Z,24.86
2018-08-25T22:09:24.923Z,25.06
2018-08-25T22:14:09.281Z,25.11
2018-08-25T22:18:52.698Z,25.23
2018-08-25T22:23:37.118Z,24.31
2018-08-25T22:28:20.465Z,25.25
2018-08-25T22:33:03.959Z,24.51
2018-08-25T22:37:49.096Z,24.82
2018-08-25T22:42:32.233Z,23.11
2018-08-25T22:47:16.665Z,24.55
2018-08-25T22:51:59.906Z,24.78
2018-08-25T22:56:43.473Z,24.66
2018-08-25T23:01:26.892Z,24.75
2018-08-25T23:06:11.149Z,24.39
2018-08-25T23:10:54.573Z,24.17
2018-08-25T23:15:38.848Z,24.38
2018-08-25T23:20:22.259Z,24.19
2018-08-25T23:25:06.547Z,23.78
2018-08-25T23:29:49.886Z,23.33
2018-08-25T23:34:34.381Z,23.56
2018-08-25T23:39:17.756Z,23.60
2018-08-25T23:44:05.058Z,24.40
2018-08-25T23:48:48.441Z,22.65
2018-08-25T23:53:31.930Z,23.40
2018-08-25T23:58:15.326Z,22.70
